createdAt,value
2019-04-23T00:01:38.572Z,51.50
2019-04-23T00:04:05.522Z,51.40
2019-04-23T00:06:43.296Z,51.70
2019-04-23T00:09:12.466Z,51.70
2019-04-23T00:11:51.691Z,51.40
2019-04-23T00:14:11.942Z,51.70
2019-04-23T00:16:45.532Z,52.20
2019-04-23T00:19:22.732Z,51.70
2019-04-23T00:21:52.405Z,52.10
2019-04-23T00:24:56.873Z,51.70
2019-04-23T00:27:23.964Z,51.80
2019-04-23T00:32:18.311Z,51.90
2019-04-23T00:34:49.632Z,51.70
2019-04-23T00:39:49.958Z,52.20
2019-04-23T00:42:23.550Z,52.00
2019-04-23T00:47:23.632Z,51.70
2019-04-23T00:49:58.569Z,51.40
2019-04-23T00:52:24.607Z,52.50
2019-04-23T00:54:57.319Z,51.40
2019-04-23T00:57:24.256Z,51.10
2019-04-23T01:02:23.726Z,51.30
2019-04-23T01:04:56.460Z,51.90
2019-04-23T01:07:30.385Z,51.10
2019-04-23T01:10:10.113Z,51.10
2019-04-23T01:12:37.543Z,51.40
2019-04-23T01:15:15.706Z,50.90
2019-04-23T01:17:51.063Z,51.40
2019-04-23T01:20:14.105Z,51.10
2019-04-23T01:22:29.871Z,51.10
2019-04-23T01:25:13.331Z,50.80
2019-04-23T01:28:13.882Z,51.20
2019-04-23T01:30:46.891Z,50.40
2019-04-23T01:33:25.536Z,50.90
2019-04-23T01:35:50.880Z,51.10
2019-04-23T01:38:18.371Z,50.20
2019-04-23T01:40:47.534Z,50.20
2019-04-23T01:43:36.550Z,50.20
2019-04-23T01:45:50.112Z,51.40
2019-04-23T01:48:19.930Z,50.30
2019-04-23T01:50:54.281Z,50.70
2019-04-23T01:53:27.202Z,49.90
2019-04-23T02:03:34.500Z,49.90
2019-04-23T02:06:04.774Z,49.90
2019-04-23T02:08:28.312Z,50.60
2019-04-23T02:11:13.149Z,50.70
2019-04-23T02:16:00.050Z,50.40
2019-04-23T02:21:07.788Z,49.50
2019-04-23T02:26:36.922Z,49.40
2019-04-23T02:38:56.216Z,49.00
2019-04-23T02:41:34.961Z,49.80
2019-04-23T02:44:13.210Z,49.30
2019-04-23T02:46:33.982Z,49.40
2019-04-23T02:54:26.821Z,49.70
2019-04-23T02:59:18.974Z,49.00
2019-04-23T03:02:11.986Z,49.40
2019-04-23T03:04:17.613Z,49.30
2019-04-23T03:06:56.053Z,50.10
2019-04-23T03:09:20.957Z,49.00
2019-04-23T03:14:18.678Z,49.30
2019-04-23T03:22:37.745Z,49.40
2019-04-23T03:25:10.249Z,49.10
2019-04-23T03:27:39.027Z,49.30
2019-04-23T03:35:08.857Z,50.40
2019-04-23T03:40:11.476Z,48.70
2019-04-23T03:50:23.526Z,49.50
2019-04-23T03:52:46.531Z,49.30
2019-04-23T03:55:19.087Z,48.70
2019-04-23T03:57:45.205Z,48.40
2019-04-23T04:00:35.313Z,48.10
2019-04-23T04:03:00.791Z,48.70
2019-04-23T04:05:33.770Z,50.50
2019-04-23T04:10:31.597Z,48.80
2019-04-23T04:13:20.163Z,48.40
2019-04-23T04:15:46.274Z,47.70
2019-04-23T04:18:11.815Z,47.60
2019-04-23T04:20:33.156Z,47.90
2019-04-23T04:23:13.420Z,47.90
2019-04-23T04:28:12.417Z,48.50
2019-04-23T04:30:35.880Z,48.90
2019-04-23T04:36:08.275Z,47.80
2019-04-23T04:38:36.941Z,48.00
2019-04-23T04:41:01.121Z,47.60
2019-04-23T04:43:37.802Z,47.40
2019-04-23T04:48:26.954Z,47.60
2019-04-23T04:51:08.032Z,47.10
2019-04-23T04:53:47.734Z,48.20
2019-04-23T04:56:07.277Z,47.70
2019-04-23T04:58:32.562Z,48.10
2019-04-23T05:03:28.251Z,48.30
2019-04-23T05:08:37.254Z,46.70
2019-04-23T05:11:07.740Z,46.90
2019-04-23T05:13:47.231Z,46.70
2019-04-23T05:16:06.393Z,47.40
2019-04-23T05:18:47.514Z,47.30
2019-04-23T05:23:50.874Z,47.40
2019-04-23T05:26:20.887Z,46.50
2019-04-23T05:33:59.924Z,46.90
2019-04-23T05:36:44.323Z,46.70
2019-04-23T05:39:09.999Z,46.70
2019-04-23T05:41:31.521Z,46.90
2019-04-23T05:44:02.023Z,46.20
2019-04-23T05:46:33.231Z,46.70
2019-04-23T05:48:59.818Z,46.40
2019-04-23T05:54:06.763Z,46.50
2019-04-23T05:56:32.385Z,46.10
2019-04-23T05:59:07.129Z,46.30
2019-04-23T06:04:24.846Z,46.00
2019-04-23T06:09:26.538Z,46.00
2019-04-23T06:11:52.623Z,46.20
2019-04-23T06:24:23.902Z,45.80
2019-04-23T06:26:54.245Z,46.20
2019-04-23T06:31:52.605Z,46.40
2019-04-23T06:34:26.514Z,48.20
2019-04-23T06:36:51.211Z,46.60
2019-04-23T06:39:24.283Z,46.60
2019-04-23T06:41:59.205Z,46.60
2019-04-23T06:52:13.566Z,46.40
2019-04-23T07:02:30.615Z,46.10
2019-04-23T07:04:41.030Z,46.60
2019-04-23T07:07:31.103Z,45.80
2019-04-23T07:09:35.253Z,45.70
2019-04-23T07:12:08.825Z,46.30
2019-04-23T07:14:44.183Z,46.30
2019-04-23T07:17:08.609Z,45.90
2019-04-23T07:19:44.984Z,45.90
2019-04-23T07:24:50.905Z,45.80
2019-04-23T07:27:21.392Z,45.40
2019-04-23T07:32:22.974Z,45.90
2019-04-23T07:35:02.509Z,45.80
2019-04-23T07:37:31.988Z,46.10
2019-04-23T07:40:26.378Z,46.00
2019-04-23T07:42:56.692Z,45.60
2019-04-23T07:45:37.337Z,46.30
2019-04-23T07:48:37.159Z,45.90
2019-04-23T07:50:55.026Z,46.20
2019-04-23T07:53:26.140Z,46.90
2019-04-23T08:03:39.309Z,45.60
2019-04-23T08:05:56.580Z,46.40
2019-04-23T08:08:34.523Z,46.40
2019-04-23T08:13:55.656Z,47.10
2019-04-23T08:16:24.702Z,46.20
2019-04-23T08:24:02.311Z,45.90
2019-04-23T08:26:56.723Z,46.10
2019-04-23T08:29:28.738Z,45.80
2019-04-23T08:32:07.471Z,46.50
2019-04-23T08:37:13.837Z,45.80
2019-04-23T08:42:33.087Z,46.60
2019-04-23T08:45:22.634Z,46.40
2019-04-23T08:48:27.532Z,46.20
2019-04-23T08:58:37.987Z,46.20
2019-04-23T09:00:58.656Z,46.60
2019-04-23T09:05:57.954Z,46.10
2019-04-23T09:11:04.434Z,46.50
2019-04-23T09:16:16.312Z,46.60
2019-04-23T09:18:45.790Z,46.80
2019-04-23T09:21:12.761Z,46.20
2019-04-23T09:23:46.774Z,46.30
2019-04-23T09:26:07.593Z,46.00
2019-04-23T09:28:51.850Z,46.00
2019-04-23T09:32:00.828Z,46.10
2019-04-23T09:34:16.623Z,46.40
2019-04-23T09:37:19.458Z,46.30
2019-04-23T09:40:16.789Z,46.90
2019-04-23T09:43:00.985Z,46.20
2019-04-23T09:48:26.707Z,46.10
2019-04-23T09:50:52.455Z,46.10
2019-04-23T09:53:26.899Z,45.80
2019-04-23T09:55:43.703Z,45.80
2019-04-23T09:58:18.602Z,45.90
2019-04-23T10:00:54.679Z,46.00
2019-04-23T10:03:16.436Z,46.00
2019-04-23T10:05:48.754Z,45.90
2019-04-23T10:08:19.329Z,45.60
2019-04-23T10:10:40.735Z,45.80
2019-04-23T10:13:11.594Z,46.10
2019-04-23T10:15:45.743Z,45.90
2019-04-23T10:18:12.049Z,46.00
2019-04-23T10:21:07.786Z,45.70
2019-04-23T10:23:37.170Z,46.00
2019-04-23T10:26:07.940Z,45.60
2019-04-23T10:28:57.731Z,45.60
2019-04-23T10:31:27.759Z,45.60
2019-04-23T10:33:57.958Z,45.80
2019-04-23T10:36:29.907Z,45.80
2019-04-23T10:39:03.516Z,45.90
2019-04-23T10:41:30.676Z,45.80
2019-04-23T10:44:13.672Z,45.80
2019-04-23T10:47:30.494Z,45.80
2019-04-23T10:50:07.412Z,45.60
2019-04-23T10:55:07.897Z,46.20
2019-04-23T10:57:31.614Z,46.30
2019-04-23T11:00:08.853Z,46.10
2019-04-23T11:05:26.086Z,46.20
2019-04-23T11:07:55.147Z,46.10
2019-04-23T11:17:53.508Z,46.20
2019-04-23T11:28:05.694Z,46.10
2019-04-23T11:33:09.196Z,46.40
2019-04-23T11:38:35.502Z,46.40
2019-04-23T11:40:55.536Z,46.40
2019-04-23T11:43:20.338Z,46.10
2019-04-23T11:51:11.181Z,46.00
2019-04-23T11:51:43.568Z,46.00
2019-04-23T11:56:18.330Z,45.90
2019-04-23T11:58:42.868Z,45.70
2019-04-23T12:01:42.800Z,45.90
2019-04-23T12:04:24.646Z,45.80
2019-04-23T12:09:51.737Z,45.70
2019-04-23T12:12:20.292Z,45.70
2019-04-23T12:14:48.031Z,45.60
2019-04-23T12:25:06.490Z,45.10
2019-04-23T12:27:27.482Z,45.20
2019-04-23T12:30:01.180Z,45.20
2019-04-23T12:35:04.252Z,45.10
2019-04-23T12:37:58.651Z,45.00
2019-04-23T12:40:24.778Z,45.00
2019-04-23T12:45:27.017Z,44.60
2019-04-23T12:58:19.175Z,44.40
2019-04-23T13:02:55.473Z,44.50
2019-04-23T13:05:31.266Z,44.50
2019-04-23T13:07:58.540Z,44.40
2019-04-23T13:10:38.791Z,44.40
2019-04-23T13:15:34.235Z,44.90
2019-04-23T13:18:23.916Z,44.70
2019-04-23T13:20:37.129Z,44.70
2019-04-23T13:23:16.791Z,44.90
2019-04-23T13:25:55.753Z,44.90
2019-04-23T13:28:27.745Z,44.90
2019-04-23T13:31:00.739Z,45.00
2019-04-23T13:33:38.037Z,45.30
2019-04-23T13:36:08.451Z,45.20
2019-04-23T13:43:42.611Z,44.90
2019-04-23T13:48:27.569Z,45.00
2019-04-23T13:51:06.696Z,45.00
2019-04-23T13:56:09.215Z,45.30
2019-04-23T14:01:18.210Z,45.50
2019-04-23T14:11:23.537Z,46.40
2019-04-23T14:24:06.394Z,47.50
2019-04-23T14:28:46.374Z,47.80
2019-04-23T14:31:16.694Z,47.70
2019-04-23T14:34:00.105Z,47.70
2019-04-23T14:36:37.196Z,48.00
2019-04-23T14:39:06.523Z,48.40
2019-04-23T14:44:11.291Z,48.90
2019-04-23T14:49:16.156Z,49.00
2019-04-23T14:51:47.805Z,49.20
2019-04-23T14:54:24.967Z,49.50
2019-04-23T14:56:53.530Z,49.70
2019-04-23T14:59:10.537Z,50.00
2019-04-23T15:01:49.760Z,50.20
2019-04-23T15:04:24.191Z,50.50
2019-04-23T15:09:29.332Z,50.80
2019-04-23T15:12:02.150Z,51.00
2019-04-23T15:14:23.255Z,51.10
2019-04-23T15:16:59.967Z,51.20
2019-04-23T15:19:38.090Z,51.50
2019-04-23T15:22:08.358Z,51.50
2019-04-23T15:24:37.649Z,51.70
2019-04-23T15:29:26.711Z,52.00
2019-04-23T15:32:13.965Z,52.00
2019-04-23T15:34:30.721Z,52.10
2019-04-23T15:37:23.794Z,52.10
2019-04-23T15:44:41.903Z,52.30
2019-04-23T15:47:19.241Z,52.60
2019-04-23T15:49:44.137Z,53.00
2019-04-23T15:52:22.283Z,53.30
2019-04-23T15:55:02.261Z,53.60
2019-04-23T15:57:41.729Z,53.60
2019-04-23T16:01:53.629Z,53.70
2019-04-23T16:04:25.148Z,53.80
2019-04-23T16:06:55.902Z,53.70
2019-04-23T16:09:55.791Z,53.70
2019-04-23T16:12:17.350Z,53.70
2019-04-23T16:17:43.360Z,53.90
2019-04-23T16:20:16.782Z,54.00
2019-04-23T16:22:36.725Z,54.20
2019-04-23T16:25:14.703Z,54.40
2019-04-23T16:27:45.720Z,54.50
2019-04-23T16:30:27.330Z,54.40
2019-04-23T16:32:59.229Z,54.60
2019-04-23T16:38:12.509Z,54.70
2019-04-23T16:40:31.604Z,54.70
2019-04-23T16:43:05.410Z,54.70
2019-04-23T16:48:06.497Z,54.90
2019-04-23T16:53:11.539Z,54.80
2019-04-23T16:55:29.199Z,55.10
2019-04-23T17:00:31.233Z,55.30
2019-04-23T17:05:40.932Z,55.60
2019-04-23T17:08:40.456Z,55.50
2019-04-23T17:10:55.456Z,55.80
2019-04-23T17:16:00.289Z,56.20
2019-04-23T17:18:22.444Z,56.50
2019-04-23T17:20:53.414Z,56.50
2019-04-23T17:25:59.248Z,56.90
2019-04-23T17:28:21.965Z,57.30
2019-04-23T17:31:18.904Z,57.30
2019-04-23T17:39:04.040Z,57.80
2019-04-23T17:41:48.649Z,58.00
2019-04-23T17:44:36.745Z,57.90
2019-04-23T17:49:35.115Z,58.10
2019-04-23T17:52:05.109Z,58.10
2019-04-23T17:54:35.464Z,58.10
2019-04-23T17:57:13.112Z,58.20
2019-04-23T18:00:25.449Z,58.10
2019-04-23T18:05:02.614Z,58.30
2019-04-23T18:07:38.286Z,58.10
2019-04-23T18:10:12.795Z,58.20
2019-04-23T18:12:41.770Z,58.10
2019-04-23T18:15:00.819Z,57.90
2019-04-23T18:17:37.793Z,57.80
2019-04-23T18:20:14.861Z,57.70
2019-04-23T18:22:46.902Z,57.60
2019-04-23T18:25:25.738Z,57.50
2019-04-23T18:30:52.645Z,57.50
2019-04-23T18:35:53.383Z,57.60
2019-04-23T18:38:33.173Z,57.40
2019-04-23T18:43:30.768Z,57.30
2019-04-23T18:46:06.913Z,57.20
2019-04-23T18:54:14.452Z,57.10
2019-04-23T18:57:12.910Z,57.00
2019-04-23T18:59:50.714Z,56.90
2019-04-23T19:02:55.038Z,56.90
2019-04-23T19:08:23.240Z,56.60
2019-04-23T19:10:57.962Z,56.60
2019-04-23T19:13:35.829Z,56.60
2019-04-23T19:16:41.079Z,56.20
2019-04-23T19:19:11.299Z,56.10
2019-04-23T19:22:09.094Z,56.40
2019-04-23T19:24:15.822Z,56.00
2019-04-23T19:31:54.086Z,55.20
2019-04-23T19:44:36.548Z,53.50
2019-04-23T19:47:06.904Z,53.20
2019-04-23T19:49:35.752Z,52.80
2019-04-23T19:51:59.719Z,52.90
2019-04-23T19:57:33.997Z,52.60
2019-04-23T20:00:34.110Z,52.50
2019-04-23T20:05:53.903Z,53.60
2019-04-23T20:08:34.297Z,52.40
2019-04-23T20:10:54.409Z,52.20
2019-04-23T20:13:33.179Z,52.20
2019-04-23T20:16:05.364Z,52.50
2019-04-23T20:18:41.481Z,52.00
2019-04-23T20:24:03.786Z,52.20
2019-04-23T20:26:17.092Z,52.00
2019-04-23T20:29:23.155Z,53.20
2019-04-23T20:34:31.370Z,52.10
2019-04-23T20:36:57.835Z,52.20
2019-04-23T20:42:10.795Z,52.30
2019-04-23T20:44:40.099Z,52.70
2019-04-23T20:52:05.101Z,52.20
2019-04-23T20:54:56.531Z,52.30
2019-04-23T21:00:12.710Z,52.50
2019-04-23T21:05:20.873Z,52.60
2019-04-23T21:07:54.017Z,52.30
2019-04-23T21:10:35.874Z,52.40
2019-04-23T21:28:26.759Z,53.20
2019-04-23T21:33:16.157Z,53.20
2019-04-23T21:38:57.001Z,53.40
2019-04-23T21:46:22.216Z,53.20
2019-04-23T21:53:54.257Z,53.10
2019-04-23T21:59:01.513Z,53.40
2019-04-23T22:01:33.249Z,53.50
2019-04-23T22:06:38.871Z,53.60
2019-04-23T22:09:08.627Z,53.80
2019-04-23T22:14:19.329Z,54.10
2019-04-23T22:16:41.085Z,54.10
2019-04-23T22:24:06.351Z,55.50
2019-04-23T22:26:38.182Z,55.40
2019-04-23T22:31:41.708Z,55.70
2019-04-23T22:36:49.782Z,55.90
2019-04-23T22:39:27.344Z,55.90
2019-04-23T22:41:54.151Z,56.30
2019-04-23T22:44:20.881Z,56.30
2019-04-23T22:46:53.632Z,56.10
2019-04-23T22:49:41.751Z,56.10
2019-04-23T22:52:06.848Z,56.20
2019-04-23T22:54:40.072Z,56.70
2019-04-23T22:56:54.333Z,56.20
2019-04-23T22:59:34.217Z,56.40
2019-04-23T23:02:10.923Z,56.80
2019-04-23T23:04:40.932Z,56.50
2019-04-23T23:09:46.494Z,56.80
2019-04-23T23:12:14.534Z,56.70
2019-04-23T23:14:48.702Z,56.90
2019-04-23T23:17:15.566Z,56.90
2019-04-23T23:19:52.518Z,57.30
2019-04-23T23:22:32.642Z,57.60
2019-04-23T23:24:53.709Z,57.60
2019-04-23T23:27:29.962Z,57.80
2019-04-23T23:30:00.386Z,57.50
2019-04-23T23:35:01.079Z,57.80
2019-04-23T23:37:19.152Z,57.60
2019-04-23T23:39:58.392Z,57.80
2019-04-23T23:42:15.793Z,57.80
2019-04-23T23:44:58.375Z,57.70
2019-04-23T23:50:00.927Z,57.90
2019-04-23T23:55:01.081Z,57.90
